Rock Glen, New York
Current Conditions -  °F | °C
As of 1:54 AM on Sunday 26 Oct 2014 (Local Time) from KDSV Reporting Station
Scattered Clouds Scattered Clouds  
Wind Chill: 51°   Ceiling: Unl
Heat Index: 51°   Visibility: 10mi
Dew Point: 38°   Wind: 10mph
Humidity: 61%   Direction: 310°NW
Pressure: 29.66"   Gusts: 18mph
Location:  42.674°N, 78.109°W
Report Text: KDSV 260554Z AUTO 31009G16KT 10SM SCT075 11/03 A2966 RMK AO2 SLP051 60000 T01060033 10144 20078 51025
Loading
Personal Weather Stations






























Interactive Weather Map
Tropical Storm Tracking
New forecast layout! Learn more

10-Day Weather Forecast

Advertisements
Track Severe Weather on mobile